createdAt,value
2023-01-11T00:01:18.215Z,99.90
2023-01-11T00:03:51.627Z,99.90
2023-01-11T00:06:25.331Z,99.90
2023-01-11T00:08:56.349Z,99.90
2023-01-11T00:11:27.072Z,99.90
2023-01-11T00:14:04.536Z,99.90
2023-01-11T00:16:35.387Z,99.90
2023-01-11T00:19:08.797Z,99.90
2023-01-11T00:21:39.855Z,99.90
2023-01-11T00:24:10.775Z,99.90
2023-01-11T00:26:44.036Z,99.90
2023-01-11T00:29:17.883Z,99.90
2023-01-11T00:31:48.695Z,99.90
2023-01-11T00:34:19.656Z,99.90
2023-01-11T00:36:50.405Z,99.90
2023-01-11T00:39:21.445Z,99.90
2023-01-11T00:42:04.679Z,99.90
2023-01-11T00:44:50.435Z,99.90
2023-01-11T00:47:33.803Z,99.90
2023-01-11T00:50:06.639Z,99.90
2023-01-11T00:52:37.451Z,99.90
2023-01-11T00:55:09.465Z,99.90
2023-01-11T00:57:40.402Z,99.90
2023-01-11T01:00:15.342Z,99.90
2023-01-11T01:02:46.417Z,99.90
2023-01-11T01:05:17.964Z,99.90
2023-01-11T01:07:49.342Z,99.90
2023-01-11T01:10:21.016Z,99.90
2023-01-11T01:13:18.911Z,99.90
2023-01-11T01:15:59.856Z,99.90
2023-01-11T01:18:30.915Z,99.90
2023-01-11T01:21:01.735Z,99.90
2023-01-11T01:23:32.494Z,99.90
2023-01-11T01:26:06.079Z,99.90
2023-01-11T01:28:36.934Z,99.90
2023-01-11T01:31:13.178Z,99.90
2023-01-11T01:33:43.947Z,99.90
2023-01-11T01:36:14.693Z,99.90
2023-01-11T01:38:45.476Z,99.90
2023-01-11T01:41:18.993Z,99.90
2023-01-11T01:43:53.436Z,99.90
2023-01-11T01:46:30.509Z,99.90
2023-01-11T01:49:07.023Z,99.90
2023-01-11T01:51:42.491Z,99.90
2023-01-11T01:54:16.845Z,99.90
2023-01-11T01:56:52.283Z,99.90
2023-01-11T01:59:28.460Z,99.90
2023-01-11T02:02:03.087Z,99.90
2023-01-11T02:04:37.339Z,99.90
2023-01-11T02:07:12.777Z,99.90
2023-01-11T02:09:47.943Z,99.90
2023-01-11T02:12:19.144Z,99.90
2023-01-11T02:14:51.714Z,99.90
2023-01-11T02:17:25.095Z,99.90
2023-01-11T02:20:00.192Z,99.90
2023-01-11T02:23:03.545Z,99.90
2023-01-11T02:26:19.092Z,99.90
2023-01-11T02:28:56.563Z,99.90
2023-01-11T02:31:36.015Z,99.90
2023-01-11T02:34:23.710Z,99.90
2023-01-11T02:37:06.617Z,99.90
2023-01-11T02:39:46.639Z,99.90
2023-01-11T02:42:42.441Z,99.90
2023-01-11T02:45:22.809Z,99.90
2023-01-11T02:48:01.011Z,99.90
2023-01-11T02:50:37.805Z,99.90
2023-01-11T02:53:15.237Z,99.90
2023-01-11T02:55:52.148Z,99.90
2023-01-11T02:58:30.976Z,99.90
2023-01-11T03:01:04.738Z,99.90
2023-01-11T03:03:35.464Z,99.90
2023-01-11T03:06:10.168Z,99.90
2023-01-11T03:09:04.510Z,99.90
2023-01-11T03:11:59.501Z,99.90
2023-01-11T03:14:37.593Z,99.90
2023-01-11T03:17:20.797Z,99.90
2023-01-11T03:19:55.285Z,99.90
2023-01-11T03:22:31.493Z,99.90
2023-01-11T03:25:13.674Z,99.90
2023-01-11T03:27:53.651Z,99.90
2023-01-11T03:30:32.269Z,99.90
2023-01-11T03:33:09.353Z,99.90
2023-01-11T03:35:44.135Z,99.90
2023-01-11T03:38:22.486Z,99.90
2023-01-11T03:40:58.462Z,99.90
2023-01-11T03:43:30.818Z,99.90
2023-01-11T03:46:06.708Z,99.90
2023-01-11T03:48:45.418Z,99.90
2023-01-11T03:51:20.455Z,99.90
2023-01-11T03:53:53.960Z,99.90
2023-01-11T03:56:31.852Z,99.90
2023-01-11T03:59:03.726Z,99.90
2023-01-11T04:01:34.681Z,99.90
2023-01-11T04:04:11.041Z,99.90
2023-01-11T04:06:42.038Z,99.90
2023-01-11T04:09:12.844Z,99.90
2023-01-11T04:11:43.645Z,99.90
2023-01-11T04:14:14.611Z,99.90
2023-01-11T04:16:45.349Z,99.90
2023-01-11T04:19:19.088Z,99.90
2023-01-11T04:21:49.880Z,99.90
2023-01-11T04:24:23.822Z,99.90
2023-01-11T04:26:54.936Z,99.90
2023-01-11T04:29:25.978Z,99.90
2023-01-11T04:32:00.199Z,99.90
2023-01-11T04:34:33.681Z,99.90
2023-01-11T04:37:05.018Z,99.90
2023-01-11T04:39:35.749Z,99.90
2023-01-11T04:42:21.858Z,99.90
2023-01-11T04:44:53.672Z,99.90
2023-01-11T04:47:26.601Z,99.90
2023-01-11T04:49:59.895Z,99.90
2023-01-11T04:52:30.776Z,99.90
2023-01-11T04:55:01.502Z,99.90
2023-01-11T04:57:32.249Z,99.90
2023-01-11T05:00:03.011Z,99.90
2023-01-11T05:02:34.021Z,99.90
2023-01-11T05:05:08.577Z,99.90
2023-01-11T05:07:39.838Z,99.90
2023-01-11T05:10:11.949Z,99.90
2023-01-11T05:12:42.942Z,99.90
2023-01-11T05:15:14.186Z,99.90
2023-01-11T05:17:44.953Z,99.90
2023-01-11T05:20:18.895Z,99.90
2023-01-11T05:22:50.589Z,99.90
2023-01-11T05:25:21.294Z,99.90
2023-01-11T05:27:52.008Z,99.90
2023-01-11T05:30:22.965Z,99.90
2023-01-11T05:32:54.113Z,99.90
2023-01-11T05:35:27.537Z,99.90
2023-01-11T05:38:00.631Z,99.90
2023-01-11T05:40:34.323Z,99.90
2023-01-11T05:43:07.649Z,99.90
2023-01-11T05:45:38.031Z,99.90
2023-01-11T05:48:08.899Z,99.90
2023-01-11T05:50:42.185Z,99.90
2023-01-11T05:53:13.196Z,99.90
2023-01-11T05:55:54.917Z,99.90
2023-01-11T05:58:27.742Z,99.90
2023-01-11T06:00:59.410Z,99.90
2023-01-11T06:03:30.273Z,99.90
2023-01-11T06:06:06.185Z,99.90
2023-01-11T06:08:37.099Z,99.90
2023-01-11T06:11:08.220Z,99.90
2023-01-11T06:13:39.068Z,99.90
2023-01-11T06:16:12.720Z,99.90
2023-01-11T06:18:45.467Z,99.90
2023-01-11T06:21:19.893Z,99.90
2023-01-11T06:23:53.898Z,99.90
2023-01-11T06:26:25.620Z,99.90
2023-01-11T06:28:56.328Z,99.90
2023-01-11T06:31:30.197Z,99.90
2023-01-11T06:34:00.965Z,99.90
2023-01-11T06:36:34.462Z,99.90
2023-01-11T06:39:05.424Z,99.90
2023-01-11T06:41:36.181Z,99.90
2023-01-11T06:44:06.961Z,99.90
2023-01-11T06:46:37.711Z,99.90
2023-01-11T06:49:08.481Z,99.90
2023-01-11T06:51:41.828Z,99.90
2023-01-11T06:54:12.880Z,99.90
2023-01-11T06:56:43.564Z,99.90
2023-01-11T06:59:17.491Z,99.90
2023-01-11T07:01:49.325Z,99.90
2023-01-11T07:04:22.452Z,99.90
2023-01-11T07:06:56.407Z,99.90
2023-01-11T07:09:27.325Z,99.90
2023-01-11T07:11:58.050Z,99.90
2023-01-11T07:14:28.865Z,99.90
2023-01-11T07:16:59.907Z,99.90
2023-01-11T07:19:31.049Z,99.90
2023-01-11T07:22:04.411Z,99.90
2023-01-11T07:24:35.291Z,99.90
2023-01-11T07:27:05.988Z,99.90
2023-01-11T07:29:36.728Z,99.90
2023-01-11T07:32:08.304Z,99.90
2023-01-11T07:34:39.078Z,99.90
2023-01-11T07:37:29.075Z,99.90
2023-01-11T07:40:00.345Z,99.90
2023-01-11T07:42:43.592Z,99.90
2023-01-11T07:45:14.493Z,99.90
2023-01-11T07:47:45.233Z,99.90
2023-01-11T07:50:16.271Z,99.90
2023-01-11T07:52:52.947Z,99.90
2023-01-11T07:55:24.269Z,99.90
2023-01-11T07:57:54.981Z,99.90
2023-01-11T08:00:26.604Z,99.90
2023-01-11T08:03:03.429Z,99.90
2023-01-11T08:05:34.250Z,99.90
2023-01-11T08:08:08.279Z,99.90
2023-01-11T08:10:41.943Z,99.90
2023-01-11T08:13:28.017Z,99.90
2023-01-11T08:16:00.428Z,99.90
2023-01-11T08:18:31.191Z,99.90
2023-01-11T08:21:02.076Z,99.90
2023-01-11T08:23:36.881Z,99.90
2023-01-11T08:26:12.290Z,99.90
2023-01-11T08:28:42.983Z,99.90
2023-01-11T08:31:16.519Z,99.90
2023-01-11T08:33:47.465Z,99.90
2023-01-11T08:36:18.626Z,99.90
2023-01-11T08:38:56.092Z,99.90
2023-01-11T08:41:29.576Z,99.90
2023-01-11T08:44:00.278Z,99.90
2023-01-11T08:46:33.777Z,99.90
2023-01-11T08:49:05.113Z,99.90
2023-01-11T08:51:35.961Z,99.90
2023-01-11T08:54:10.278Z,99.90
2023-01-11T08:56:41.227Z,99.90
2023-01-11T08:59:13.593Z,99.90
2023-01-11T09:01:44.523Z,99.90
2023-01-11T09:04:25.203Z,99.90
2023-01-11T09:06:56.985Z,99.90
2023-01-11T09:09:30.327Z,99.90
2023-01-11T09:12:05.505Z,99.90
2023-01-11T09:14:36.665Z,99.90
2023-01-11T09:17:07.472Z,99.90
2023-01-11T09:19:40.291Z,99.90
2023-01-11T09:22:11.098Z,99.90
2023-01-11T09:24:44.409Z,99.90
2023-01-11T09:27:15.293Z,99.90
2023-01-11T09:29:46.174Z,99.90
2023-01-11T09:32:17.027Z,99.90
2023-01-11T09:34:49.715Z,99.90
2023-01-11T09:37:22.640Z,99.90
2023-01-11T09:39:59.712Z,99.90
2023-01-11T09:42:39.469Z,99.90
2023-01-11T09:45:21.673Z,99.90
2023-01-11T09:48:00.424Z,99.90
2023-01-11T09:50:36.037Z,99.90
2023-01-11T09:53:09.891Z,99.90
2023-01-11T09:55:46.833Z,99.90
2023-01-11T09:58:46.615Z,99.90
2023-01-11T10:01:21.979Z,99.90
2023-01-11T10:04:33.364Z,99.90
2023-01-11T10:07:37.372Z,99.90
2023-01-11T10:18:32.233Z,99.90
2023-01-11T10:19:40.624Z,99.90
2023-01-11T10:22:19.688Z,99.90
2023-01-11T10:24:56.363Z,99.90
2023-01-11T10:27:32.897Z,99.90
2023-01-11T10:30:33.346Z,99.90
2023-01-11T10:33:18.331Z,99.90
2023-01-11T10:36:10.601Z,99.90
2023-01-11T10:38:59.277Z,99.90
2023-01-11T10:41:38.781Z,99.90
2023-01-11T10:44:19.572Z,99.90
2023-01-11T10:47:00.201Z,99.90
2023-01-11T10:49:46.551Z,99.90
2023-01-11T10:52:36.765Z,99.90
2023-01-11T10:55:15.617Z,99.90
2023-01-11T10:58:02.756Z,99.90
2023-01-11T11:00:41.942Z,99.90
2023-01-11T11:03:43.139Z,99.90
2023-01-11T11:06:24.451Z,99.90
2023-01-11T11:09:01.419Z,99.90
2023-01-11T11:11:37.720Z,99.90
2023-01-11T11:14:17.339Z,99.90
2023-01-11T11:16:58.931Z,99.90
2023-01-11T11:19:34.816Z,99.90
2023-01-11T11:22:05.573Z,99.90
2023-01-11T11:24:41.564Z,99.90
2023-01-11T11:27:20.797Z,99.90
2023-01-11T11:29:57.084Z,99.90
2023-01-11T11:32:31.719Z,99.90
2023-01-11T11:35:05.394Z,99.90
2023-01-11T11:37:38.499Z,99.90
2023-01-11T11:40:29.712Z,99.90
2023-01-11T11:43:23.048Z,99.90
2023-01-11T11:45:58.096Z,99.90
2023-01-11T11:48:31.260Z,99.90
2023-01-11T11:51:07.722Z,99.90
2023-01-11T11:53:43.378Z,99.90
2023-01-11T11:56:20.704Z,99.90
2023-01-11T11:58:51.852Z,99.90
2023-01-11T12:01:30.054Z,99.90
2023-01-11T12:04:05.151Z,99.90
2023-01-11T12:06:38.544Z,99.90
2023-01-11T12:09:15.251Z,99.90
2023-01-11T12:11:50.897Z,99.90
2023-01-11T12:14:26.702Z,99.90
2023-01-11T12:16:57.669Z,99.90
2023-01-11T12:19:30.444Z,99.90
2023-01-11T12:22:20.957Z,99.90
2023-01-11T12:25:09.186Z,99.90
2023-01-11T12:27:48.372Z,99.90
2023-01-11T12:30:26.935Z,99.90
2023-01-11T12:33:19.054Z,99.90
2023-01-11T12:35:56.711Z,99.90
2023-01-11T12:38:42.373Z,99.90
2023-01-11T12:41:43.778Z,99.90
2023-01-11T12:44:23.468Z,99.90
2023-01-11T12:47:18.133Z,99.90
2023-01-11T12:49:59.155Z,99.90
2023-01-11T12:52:49.848Z,99.90
2023-01-11T12:55:42.085Z,99.90
2023-01-11T12:58:17.992Z,99.90
2023-01-11T13:01:01.779Z,99.90
2023-01-11T13:04:07.207Z,99.90
2023-01-11T13:06:43.554Z,99.90
2023-01-11T13:09:30.609Z,99.90
2023-01-11T13:12:12.401Z,99.90
2023-01-11T13:14:57.758Z,99.90
2023-01-11T13:17:36.336Z,97.90
2023-01-11T13:20:25.702Z,94.80
2023-01-11T13:23:01.452Z,93.10
2023-01-11T13:25:36.510Z,89.60
2023-01-11T13:28:24.415Z,86.50
2023-01-11T13:30:55.857Z,87.40
2023-01-11T13:33:33.798Z,87.00
2023-01-11T13:36:22.915Z,89.30
2023-01-11T13:39:01.817Z,74.40
2023-01-11T13:41:42.054Z,62.90
2023-01-11T13:44:23.495Z,57.60
2023-01-11T13:47:07.537Z,64.40
2023-01-11T13:49:46.712Z,62.90
2023-01-11T13:52:25.434Z,52.20
2023-01-11T13:55:01.890Z,51.20
2023-01-11T13:57:37.817Z,50.00
2023-01-11T14:00:23.132Z,48.20
2023-01-11T14:03:00.676Z,49.10
2023-01-11T14:05:38.580Z,49.80
2023-01-11T14:08:26.720Z,52.60
2023-01-11T14:11:06.277Z,52.60
2023-01-11T14:14:03.253Z,49.80
2023-01-11T14:16:47.727Z,50.90
2023-01-11T14:19:27.969Z,51.50
2023-01-11T14:22:13.758Z,51.50
2023-01-11T14:24:58.668Z,54.50
2023-01-11T14:27:50.302Z,49.50
2023-01-11T14:30:40.144Z,50.70
2023-01-11T14:33:48.493Z,51.90
2023-01-11T14:36:46.483Z,50.60
2023-01-11T14:39:38.051Z,46.50
2023-01-11T14:42:42.131Z,46.70
2023-01-11T14:45:23.179Z,48.30
2023-01-11T14:48:08.985Z,48.80
2023-01-11T14:51:07.270Z,50.90
2023-01-11T14:53:43.197Z,47.20
2023-01-11T14:56:39.157Z,47.30
2023-01-11T14:59:26.185Z,47.10
2023-01-11T15:02:27.715Z,49.20
2023-01-11T15:05:10.018Z,47.30
2023-01-11T15:07:44.879Z,45.90
2023-01-11T15:10:48.324Z,43.60
2023-01-11T15:13:22.845Z,42.70
2023-01-11T15:16:07.500Z,43.50
2023-01-11T15:18:47.229Z,41.40
2023-01-11T15:21:21.540Z,40.70
2023-01-11T15:23:57.895Z,40.40
2023-01-11T15:26:32.631Z,40.60
2023-01-11T15:29:05.084Z,40.30
2023-01-11T15:31:39.798Z,41.30
2023-01-11T15:34:27.202Z,39.70
2023-01-11T15:37:28.523Z,39.70
2023-01-11T15:40:06.644Z,38.70
2023-01-11T15:43:14.951Z,40.60
2023-01-11T15:46:30.374Z,39.40
2023-01-11T15:49:22.156Z,39.00
2023-01-11T15:52:18.108Z,40.00
2023-01-11T15:55:22.565Z,40.00
2023-01-11T15:58:24.230Z,42.20
2023-01-11T16:01:23.505Z,43.00
2023-01-11T16:04:14.972Z,40.90
2023-01-11T16:06:50.188Z,43.00
2023-01-11T16:09:41.316Z,40.50
2023-01-11T16:12:34.223Z,41.80
2023-01-11T16:15:30.438Z,41.50
2023-01-11T16:18:13.396Z,42.60
2023-01-11T16:20:58.433Z,42.80
2023-01-11T16:23:30.433Z,43.60
2023-01-11T16:26:02.346Z,42.70
2023-01-11T16:28:33.221Z,45.20
2023-01-11T16:31:10.628Z,45.00
2023-01-11T16:33:41.577Z,45.40
2023-01-11T16:36:15.744Z,44.40
2023-01-11T16:38:56.653Z,48.00
2023-01-11T16:41:34.250Z,48.20
2023-01-11T16:44:08.819Z,48.90
2023-01-11T16:47:13.254Z,50.10
2023-01-11T16:49:48.843Z,49.00
2023-01-11T16:52:43.349Z,50.90
2023-01-11T16:55:24.604Z,48.60
2023-01-11T16:58:01.156Z,48.80
2023-01-11T17:00:36.334Z,49.40
2023-01-11T17:03:25.014Z,48.90
2023-01-11T17:05:58.388Z,47.90
2023-01-11T17:08:32.476Z,49.80
2023-01-11T17:11:06.968Z,47.40
2023-01-11T17:13:59.183Z,48.10
2023-01-11T17:16:33.312Z,48.90
2023-01-11T17:19:11.235Z,47.30
2023-01-11T17:21:43.787Z,46.70
2023-01-11T17:24:17.177Z,47.40
2023-01-11T17:26:50.483Z,46.00
2023-01-11T17:29:29.161Z,47.20
2023-01-11T17:32:02.931Z,45.90
2023-01-11T17:34:38.753Z,47.90
2023-01-11T17:37:13.984Z,47.70
2023-01-11T17:39:48.809Z,46.70
2023-01-11T17:42:32.651Z,46.80
2023-01-11T17:45:20.616Z,48.30
2023-01-11T17:47:55.172Z,47.10
2023-01-11T17:50:31.871Z,46.70
2023-01-11T17:53:14.407Z,46.90
2023-01-11T17:55:53.986Z,47.10
2023-01-11T17:58:29.099Z,46.80
2023-01-11T18:01:22.623Z,49.10
2023-01-11T18:03:57.039Z,48.20
2023-01-11T18:06:37.578Z,47.90
2023-01-11T18:09:11.195Z,51.30
2023-01-11T18:11:47.400Z,49.00
2023-01-11T18:14:22.645Z,48.20
2023-01-11T18:17:02.305Z,49.10
2023-01-11T18:19:41.650Z,49.50
2023-01-11T18:22:33.315Z,48.30
2023-01-11T18:25:06.062Z,48.20
2023-01-11T18:27:38.205Z,50.00
2023-01-11T18:30:12.089Z,47.30
2023-01-11T18:32:45.748Z,47.40
2023-01-11T18:35:22.163Z,46.40
2023-01-11T18:37:55.580Z,45.30
2023-01-11T18:40:31.046Z,45.50
2023-01-11T18:43:02.980Z,44.00
2023-01-11T18:45:33.905Z,42.80
2023-01-11T18:48:04.777Z,42.30
2023-01-11T18:50:35.599Z,42.30
2023-01-11T18:53:09.102Z,42.70
2023-01-11T18:55:39.905Z,42.80
2023-01-11T18:58:10.808Z,42.60
2023-01-11T19:00:42.033Z,42.40
2023-01-11T19:05:46.570Z,42.00
2023-01-11T19:08:20.017Z,42.70
2023-01-11T19:10:51.580Z,42.60
2023-01-11T19:13:22.994Z,42.50
2023-01-11T19:15:53.786Z,42.50
2023-01-11T19:18:24.678Z,42.30
2023-01-11T19:20:55.396Z,42.50
2023-01-11T19:23:28.878Z,42.50
2023-01-11T19:26:01.374Z,42.40
2023-01-11T19:28:32.451Z,41.90
2023-01-11T19:31:03.367Z,41.80
2023-01-11T19:33:37.399Z,42.30
2023-01-11T19:36:09.140Z,42.80
2023-01-11T19:38:42.533Z,40.70
2023-01-11T19:41:16.563Z,41.60
2023-01-11T19:43:47.472Z,42.80
2023-01-11T19:46:31.169Z,40.90
2023-01-11T19:49:02.715Z,40.60
2023-01-11T19:51:33.537Z,40.50
2023-01-11T19:54:07.868Z,40.60
2023-01-11T19:56:38.591Z,40.40
2023-01-11T19:59:09.631Z,40.80
2023-01-11T20:01:41.711Z,41.20
2023-01-11T20:04:15.175Z,40.90
2023-01-11T20:06:50.503Z,40.30
2023-01-11T20:09:24.765Z,40.30
2023-01-11T20:11:55.862Z,40.10
2023-01-11T20:14:26.945Z,40.20
2023-01-11T20:17:00.914Z,40.50
2023-01-11T20:19:31.714Z,39.50
2023-01-11T20:22:02.454Z,40.80
2023-01-11T20:24:35.945Z,40.20
2023-01-11T20:27:06.895Z,39.90
2023-01-11T20:29:37.848Z,40.30
2023-01-11T20:32:31.282Z,40.60
2023-01-11T20:35:02.168Z,40.60
2023-01-11T20:37:35.433Z,41.30
2023-01-11T20:40:11.856Z,40.70
2023-01-11T20:42:43.885Z,40.30
2023-01-11T20:45:15.039Z,39.80
2023-01-11T20:47:45.857Z,40.60
2023-01-11T20:50:16.641Z,39.30
2023-01-11T20:52:47.406Z,39.60
2023-01-11T20:55:20.906Z,40.00
2023-01-11T20:57:51.758Z,38.60
2023-01-11T21:00:26.542Z,39.90
2023-01-11T21:02:57.520Z,38.40
2023-01-11T21:05:31.206Z,38.70
2023-01-11T21:08:03.350Z,37.90
2023-01-11T21:10:36.748Z,40.30
2023-01-11T21:15:40.547Z,38.10
2023-01-11T21:18:11.338Z,37.20
2023-01-11T21:20:42.450Z,36.50
2023-01-11T21:23:15.308Z,36.80
2023-01-11T21:25:48.662Z,36.00
2023-01-11T21:28:19.352Z,34.90
2023-01-11T21:30:50.186Z,34.10
2023-01-11T21:33:22.333Z,34.40
2023-01-11T21:35:53.007Z,36.60
2023-01-11T21:38:26.984Z,37.10
2023-01-11T21:41:09.318Z,39.10
2023-01-11T21:43:43.295Z,42.60
2023-01-11T21:46:15.424Z,44.50
2023-01-11T21:48:46.788Z,45.80
2023-01-11T21:51:20.106Z,52.30
2023-01-11T21:53:50.934Z,52.70
2023-01-11T21:56:24.693Z,56.70
2023-01-11T21:58:58.205Z,55.20
2023-01-11T22:01:29.245Z,57.30
2023-01-11T22:04:00.042Z,58.50
2023-01-11T22:06:30.877Z,62.50
2023-01-11T22:09:01.835Z,62.40
2023-01-11T22:11:35.816Z,61.30
2023-01-11T22:14:08.705Z,63.50
2023-01-11T22:16:40.683Z,63.80
2023-01-11T22:19:11.846Z,72.10
2023-01-11T22:21:42.678Z,77.90
2023-01-11T22:24:16.758Z,84.80
2023-01-11T22:26:51.661Z,88.40
2023-01-11T22:29:22.512Z,92.10
2023-01-11T22:31:56.926Z,99.80
2023-01-11T22:34:27.821Z,99.90
2023-01-11T22:36:59.425Z,99.90
2023-01-11T22:39:32.356Z,99.90
2023-01-11T22:42:05.807Z,99.90
2023-01-11T22:44:39.434Z,99.90
2023-01-11T22:47:10.424Z,99.90
2023-01-11T22:49:41.142Z,99.90
2023-01-11T22:52:11.905Z,99.90
2023-01-11T22:54:42.686Z,99.90
2023-01-11T22:57:16.138Z,99.90
2023-01-11T22:59:48.367Z,99.90
2023-01-11T23:02:22.177Z,98.50
2023-01-11T23:04:52.992Z,98.90
2023-01-11T23:07:27.391Z,95.40
2023-01-11T23:09:58.195Z,96.00
2023-01-11T23:12:45.005Z,95.40
2023-01-11T23:15:15.799Z,96.90
2023-01-11T23:17:49.472Z,98.20
2023-01-11T23:20:22.501Z,99.90
2023-01-11T23:22:53.720Z,99.90
2023-01-11T23:25:24.465Z,99.90
2023-01-11T23:27:58.601Z,99.90
2023-01-11T23:30:29.396Z,99.90
2023-01-11T23:33:00.168Z,99.90
2023-01-11T23:35:31.167Z,99.90
2023-01-11T23:38:02.272Z,99.90
2023-01-11T23:40:53.093Z,99.90
2023-01-11T23:43:27.466Z,99.90
2023-01-11T23:46:18.280Z,99.90
2023-01-11T23:48:46.525Z,99.90
2023-01-11T23:51:17.556Z,99.90
2023-01-11T23:53:48.324Z,99.90
2023-01-11T23:56:19.200Z,99.90
2023-01-11T23:58:53.423Z,99.90
